Aérodrome :
LOGIN :

S'inscrire | Disclaimer

   EN    FR    IT 

 










Légende :    VFR   VFR Marginal   IFR   IFR Intensif   IFR Très Intensif
Visi : 
Plafond : 
>= 8 km
>= 3000ft
5 à 8 km
1000 à 3000 ft
1500m à 5 km
500 à 1000 ft
800 à 1500m
200 à 500 ft
< 800m
< 200 ft
Symboles :   Orages  Brouillard  Fortes neiges  Fortes précipitations  Vent > 20 kt
SIGMETs :   Divers  Orages  Givrage  Turbulence  Onde Orograph.  Cendres Volcan.






- Altitude de l'aérodrome : 290 ft
- Code IATA : OSI


LDOS - Osijek

DERNIER METAR :
  • 190430Z 16003KT CAVOK 20/18 Q1015

METARs EXPIRÉS :
  • 190400Z 16005KT CAVOK 19/18 Q1015
  • 190330Z 16004KT CAVOK 18/17 Q1015
  • 190300Z 15004KT CAVOK 18/17 Q1015
  • 190230Z VRB02KT CAVOK 18/17 Q1015
  • 190200Z 10002KT CAVOK 18/17 Q1015
  • 190130Z 10004KT CAVOK 19/17 Q1015
  • 190100Z 09005KT CAVOK 18/17 Q1015
  • 190030Z 10004KT CAVOK 19/17 Q1015
  • 190000Z 08004KT CAVOK 19/18 Q1015

TAF TAF LDOS
Valide du 19 à 00h jusqu'au 20 à 00h UTC


182325Z 1900/2000 12005KT CAVOK TX35/1914Z TN18/1903Z
TEMPO 1910/1917 11010KT
BECMG 1920/1922 27008KT



MET'MAP, la Météo Aéronautique d'un coup d'oeil ! - Copyright ORBIFLY Décembre 2007 - Disclaimer

ORBIFLY MET'MAP TEAM :

Programmation & Développement : Alexandra Zaïnal
Sur une idée originale de : Baudouin d'Aumeries
Soutien technique & logistique : Manuel Goepfert
Assistance : Marc-Olivier Méhu




SOURCES & CREDITS :

   NOAA